Time;durP1;ratioP1;P1;durP2;ratioP2;P2;SDS_P1;SDS_P2;PMS_P1;PMS_P2;Temp;Humidity;BMP_temperature;BMP_pressure;BME280_temperature;BME280_humidity;BME280_pressure;Samples;Min_cycle;Max_cycle;Signal;HPM_P1;HPM_P2
2022/05/17 00:00:35;;;;;;;7.53;6.82;;;;;;;19.32;97.28;99626.41;5090893;28;20206;-57
2022/05/17 00:03:02;;;;;;;6.55;5.95;;;;;;;19.27;97.96;99631.13;5091005;28;20199;-57
2022/05/17 00:05:29;;;;;;;7.13;6.43;;;;;;;19.20;98.75;99617.50;5090999;28;20699;-56
2022/05/17 00:07:56;;;;;;;8.95;6.22;;;;;;;19.30;98.00;99615.13;5090523;28;20201;-55
2022/05/17 00:10:25;;;;;;;7.50;6.80;;;;;;;19.31;98.25;99613.34;5090803;28;20376;-56
2022/05/17 00:12:53;;;;;;;6.82;6.30;;;;;;;19.21;99.39;99610.44;5090706;28;20207;-57
2022/05/17 00:15:22;;;;;;;7.25;6.70;;;;;;;19.19;99.38;99607.91;5089742;28;20354;-65
2022/05/17 00:17:49;;;;;;;8.15;6.50;;;;;;;19.20;99.22;99604.34;5089153;28;20195;-66
2022/05/17 00:20:17;;;;;;;7.80;6.82;;;;;;;19.05;99.39;99581.63;5090620;28;20202;-66
2022/05/17 00:22:45;;;;;;;6.60;6.00;;;;;;;19.21;99.20;99603.41;5090507;28;20191;-65
2022/05/17 00:25:15;;;;;;;7.75;6.75;;;;;;;19.18;98.29;99597.50;5090708;28;20225;-65
2022/05/17 00:27:42;;;;;;;10.63;6.78;;;;;;;19.13;98.83;99596.94;5090616;28;20586;-56
2022/05/17 00:30:10;;;;;;;7.88;7.07;;;;;;;19.15;99.14;99600.31;5090453;28;20196;-55
2022/05/17 00:32:39;;;;;;;10.07;6.38;;;;;;;19.01;99.85;99605.59;5090573;28;20199;-56
2022/05/17 00:35:06;;;;;;;7.07;6.35;;;;;;;18.93;100.00;99602.59;5090374;28;20195;-67
2022/05/17 00:37:34;;;;;;;7.30;6.60;;;;;;;18.92;100.00;99600.91;5090929;28;20199;-66
2022/05/17 00:40:01;;;;;;;7.10;6.50;;;;;;;18.93;100.00;99598.19;5090597;28;20199;-67
2022/05/17 00:42:27;;;;;;;7.93;6.93;;;;;;;18.94;100.00;99594.63;5090370;28;20578;-67
2022/05/17 00:44:54;;;;;;;8.98;8.20;;;;;;;18.94;100.00;99605.13;5089958;28;20257;-58
2022/05/17 00:47:25;;;;;;;10.05;9.25;;;;;;;18.93;100.00;99610.50;5090298;28;20597;-58
2022/05/17 00:49:58;;;;;;;9.77;9.00;;;;;;;18.88;100.00;99591.50;5090055;28;20195;-57
2022/05/17 00:52:30;;;;;;;10.60;9.65;;;;;;;18.96;100.00;99605.88;5090139;28;20213;-67
2022/05/17 00:55:00;;;;;;;11.57;10.63;;;;;;;18.82;100.00;99593.59;5090192;28;20202;-68
2022/05/17 00:57:32;;;;;;;11.70;10.77;;;;;;;18.85;100.00;99605.69;5090091;28;20285;-58
2022/05/17 01:00:04;;;;;;;12.60;11.57;;;;;;;18.80;100.00;99600.72;5089994;28;20195;-58
2022/05/17 01:02:32;;;;;;;11.60;10.70;;;;;;;18.81;100.00;99588.41;5090423;28;20589;-58
2022/05/17 01:05:03;;;;;;;11.75;10.70;;;;;;;18.85;100.00;99590.75;5089834;28;20229;-69
2022/05/17 01:07:37;;;;;;;12.17;11.17;;;;;;;18.82;100.00;99585.69;5090216;28;20191;-68
2022/05/17 01:10:05;;;;;;;13.03;12.00;;;;;;;18.69;100.00;99590.00;5089980;28;20191;-58
2022/05/17 01:12:34;;;;;;;11.43;10.33;;;;;;;18.56;100.00;99586.41;5090751;28;20209;-58
2022/05/17 01:15:00;;;;;;;12.07;10.87;;;;;;;18.65;100.00;99596.38;5093968;28;20282;-66
2022/05/17 01:17:30;;;;;;;12.63;11.53;;;;;;;18.40;100.00;99570.69;5093905;28;20234;-58
2022/05/17 01:19:57;;;;;;;12.48;11.57;;;;;;;18.37;100.00;99567.41;5093968;28;20193;-57
2022/05/17 01:22:26;;;;;;;12.20;10.90;;;;;;;18.43;100.00;99590.69;5093951;28;20213;-57
2022/05/17 01:24:53;;;;;;;12.17;10.90;;;;;;;18.28;100.00;99581.97;5093663;28;20229;-57
2022/05/17 01:27:28;;;;;;;14.00;11.50;;;;;;;18.13;100.00;99559.22;5094266;28;20199;-65
2022/05/17 01:29:55;;;;;;;12.07;10.93;;;;;;;18.09;100.00;99558.53;5093870;28;20638;-66
2022/05/17 01:32:23;;;;;;;11.43;10.53;;;;;;;18.20;100.00;99576.28;5093834;28;20191;-67
2022/05/17 01:34:50;;;;;;;12.03;11.03;;;;;;;18.20;100.00;99581.53;5093141;28;20631;-57
2022/05/17 01:37:17;;;;;;;12.37;11.37;;;;;;;18.19;100.00;99579.00;5093785;28;20683;-66
2022/05/17 01:39:46;;;;;;;13.10;11.90;;;;;;;18.16;100.00;99566.06;5093444;28;20567;-66
2022/05/17 01:42:16;;;;;;;12.17;11.37;;;;;;;18.09;100.00;99581.31;5093874;28;20191;-56
2022/05/17 01:44:45;;;;;;;12.50;11.60;;;;;;;18.09;100.00;99576.91;5093444;28;20238;-66
2022/05/17 01:47:12;;;;;;;13.53;12.30;;;;;;;18.05;100.00;99572.81;5093671;28;20718;-57
2022/05/17 01:49:39;;;;;;;13.47;11.60;;;;;;;18.10;100.00;99575.13;5093714;28;20667;-66
2022/05/17 01:52:07;;;;;;;15.20;12.77;;;;;;;18.07;100.00;99563.03;5093262;28;20359;-57
2022/05/17 01:54:34;;;;;;;14.50;13.27;;;;;;;18.07;100.00;99568.28;5093355;28;20206;-66
2022/05/17 01:57:03;;;;;;;14.73;13.33;;;;;;;18.02;100.00;99545.88;5093437;28;20217;-67
2022/05/17 01:59:30;;;;;;;15.57;14.17;;;;;;;18.08;100.00;99559.47;5093342;28;20199;-65
2022/05/17 02:01:57;;;;;;;15.23;13.73;;;;;;;18.06;100.00;99563.97;5093058;28;20282;-65
2022/05/17 02:04:24;;;;;;;15.63;13.97;;;;;;;18.04;100.00;99565.00;5093198;28;20201;-63
2022/05/17 02:06:51;;;;;;;17.00;15.23;;;;;;;18.06;100.00;99558.72;5092938;28;20196;-63
2022/05/17 02:09:18;;;;;;;15.70;14.13;;;;;;;17.95;100.00;99555.88;5093377;28;20562;-63
2022/05/17 02:11:45;;;;;;;16.27;14.57;;;;;;;17.88;100.00;99561.56;5093070;28;20197;-64
2022/05/17 02:14:13;;;;;;;17.60;14.50;;;;;;;17.73;100.00;99543.13;5093266;28;20195;-63
2022/05/17 02:16:41;;;;;;;16.37;14.80;;;;;;;17.75;100.00;99564.91;5092982;28;20278;-65
2022/05/17 02:19:08;;;;;;;15.77;13.93;;;;;;;17.79;100.00;99562.97;5092930;28;20199;-65
2022/05/17 02:21:36;;;;;;;16.30;14.40;;;;;;;17.78;100.00;99562.09;5092802;28;20681;-65
2022/05/17 02:24:04;;;;;;;15.27;13.77;;;;;;;17.83;100.00;99574.97;5092940;28;20218;-64
2022/05/17 02:26:31;;;;;;;17.53;13.67;;;;;;;17.88;100.00;99577.31;5093025;28;20237;-65
2022/05/17 02:28:59;;;;;;;14.73;13.50;;;;;;;17.76;100.00;99566.59;5092658;28;20278;-64
2022/05/17 02:31:27;;;;;;;18.20;13.67;;;;;;;17.74;100.00;99568.44;5092643;28;20234;-65
2022/05/17 02:33:54;;;;;;;14.63;13.43;;;;;;;17.70;100.00;99559.09;5092492;28;20199;-57
2022/05/17 02:36:21;;;;;;;14.40;13.30;;;;;;;17.58;100.00;99554.50;5092869;28;20218;-65
2022/05/17 02:38:48;;;;;;;14.53;13.43;;;;;;;17.57;100.00;99557.22;5092530;28;20202;-65
2022/05/17 02:41:18;;;;;;;14.07;12.77;;;;;;;17.53;100.00;99564.41;5092708;28;20250;-66
2022/05/17 02:43:45;;;;;;;14.70;13.27;;;;;;;17.55;100.00;99548.56;5092443;28;20199;-65
2022/05/17 02:46:12;;;;;;;13.60;12.40;;;;;;;17.48;100.00;99550.72;5084597;28;20219;-65
2022/05/17 02:48:40;;;;;;;13.80;12.67;;;;;;;17.37;100.00;99551.31;5080157;28;20586;-65
2022/05/17 02:51:09;;;;;;;14.37;12.33;;;;;;;17.35;100.00;99557.56;5090162;28;20269;-65
2022/05/17 02:53:36;;;;;;;14.13;12.80;;;;;;;17.34;100.00;99567.22;5090155;28;20292;-57
2022/05/17 02:56:03;;;;;;;18.37;13.33;;;;;;;17.20;100.00;99567.13;5090198;28;20211;-58
2022/05/17 02:58:30;;;;;;;15.17;13.47;;;;;;;17.15;100.00;99568.31;5089607;28;20219;-57
2022/05/17 03:00:57;;;;;;;15.33;13.83;;;;;;;17.16;100.00;99568.22;5089949;28;20226;-57
2022/05/17 03:03:24;;;;;;;14.77;13.10;;;;;;;17.07;100.00;99563.47;5089901;28;20695;-57
2022/05/17 03:05:52;;;;;;;16.03;14.50;;;;;;;17.12;100.00;99565.88;5090000;28;20219;-57
2022/05/17 03:08:19;;;;;;;17.30;15.50;;;;;;;17.09;100.00;99572.09;5089294;28;20211;-66
2022/05/17 03:10:48;;;;;;;18.13;14.83;;;;;;;16.90;100.00;99547.81;5070751;28;20228;-65
2022/05/17 03:13:16;;;;;;;16.50;15.00;;;;;;;16.94;100.00;99579.03;5087387;28;20291;-58
2022/05/17 03:15:44;;;;;;;16.83;15.50;;;;;;;16.91;100.00;99563.47;5091115;28;20225;-57
2022/05/17 03:18:11;;;;;;;18.97;16.10;;;;;;;16.99;100.00;99577.00;5090946;28;20747;-65
2022/05/17 03:20:38;;;;;;;18.50;16.73;;;;;;;17.03;100.00;99580.31;5090367;28;20221;-65
2022/05/17 03:23:06;;;;;;;18.90;17.00;;;;;;;17.10;100.00;99583.44;5090157;28;20641;-66
2022/05/17 03:25:33;;;;;;;18.67;16.77;;;;;;;16.98;100.00;99563.97;5087041;28;20221;-66
2022/05/17 03:28:00;;;;;;;19.03;15.53;;;;;;;17.23;100.00;99574.84;5089274;28;20206;-57
2022/05/17 03:30:28;;;;;;;18.13;16.20;;;;;;;17.23;100.00;99574.84;5089887;28;20278;-65
2022/05/17 03:32:55;;;;;;;17.10;15.60;;;;;;;17.23;100.00;99587.94;5091372;28;20244;-57
2022/05/17 03:35:23;;;;;;;18.20;16.27;;;;;;;17.31;100.00;99585.75;5076541;28;20216;-58
2022/05/17 03:37:50;;;;;;;18.27;16.37;;;;;;;17.33;100.00;99585.66;5070290;28;20220;-57
2022/05/17 03:40:19;;;;;;;20.53;15.90;;;;;;;17.45;100.00;99586.75;5073789;28;20225;-57
2022/05/17 03:42:46;;;;;;;18.27;16.13;;;;;;;17.53;100.00;99593.25;5090375;28;20726;-58
2022/05/17 03:45:13;;;;;;;17.43;15.63;;;;;;;17.64;100.00;99585.66;5085986;28;20222;-57
2022/05/17 03:47:40;;;;;;;16.93;15.07;;;;;;;17.86;100.00;99571.31;5086848;28;20202;-58
2022/05/17 03:50:09;;;;;;;15.63;14.07;;;;;;;19.01;100.00;99589.81;5088293;28;20253;-57
2022/05/17 03:52:36;;;;;;;17.10;12.60;;;;;;;20.41;89.54;99597.38;5089636;28;20214;-58
2022/05/17 03:55:05;;;;;;;13.68;12.32;;;;;;;21.58;80.27;99604.91;5086952;28;20195;-59
2022/05/17 03:57:34;;;;;;;14.23;12.80;;;;;;;22.66;71.47;99599.44;5088678;28;20634;-58
2022/05/17 04:00:01;;;;;;;13.82;11.27;;;;;;;23.81;65.73;99599.16;5087950;28;20286;-66
2022/05/17 04:02:28;;;;;;;12.32;10.95;;;;;;;24.81;60.12;99616.34;5087685;28;20226;-66
2022/05/17 04:04:56;;;;;;;11.90;10.80;;;;;;;25.54;56.38;99620.56;5086830;28;20237;-65
2022/05/17 04:07:24;;;;;;;12.15;11.02;;;;;;;26.00;53.84;99612.81;5085334;28;20843;-65
2022/05/17 04:09:51;;;;;;;12.50;10.27;;;;;;;26.62;51.47;99608.88;5085944;28;20697;-66
2022/05/17 04:12:18;;;;;;;12.30;11.05;;;;;;;27.15;49.31;99615.44;5088249;28;20327;-65
2022/05/17 04:14:46;;;;;;;15.20;11.90;;;;;;;27.89;47.36;99632.13;5087680;28;20249;-66
2022/05/17 04:17:13;;;;;;;10.70;9.82;;;;;;;28.40;45.66;99626.13;5086477;28;20291;-66
2022/05/17 04:19:40;;;;;;;10.88;9.93;;;;;;;28.72;44.36;99630.00;5086261;28;20258;-67
2022/05/17 04:22:09;;;;;;;10.80;9.95;;;;;;;29.44;42.74;99626.94;5084448;28;20192;-59
2022/05/17 04:24:36;;;;;;;10.73;9.73;;;;;;;30.30;40.97;99630.09;5086906;28;20263;-64
2022/05/17 04:27:04;;;;;;;10.18;9.52;;;;;;;30.80;39.29;99626.41;5086050;28;20215;-64
2022/05/17 04:29:31;;;;;;;10.82;9.93;;;;;;;30.82;38.98;99626.22;5085232;28;20676;-61
2022/05/17 04:32:00;;;;;;;10.07;9.20;;;;;;;31.00;38.36;99616.97;5087767;28;20290;-58
2022/05/17 04:34:27;;;;;;;10.27;9.30;;;;;;;31.06;37.95;99620.78;5085433;28;20222;-60
2022/05/17 04:36:53;;;;;;;10.52;9.68;;;;;;;31.86;37.01;99623.31;5082601;28;20195;-57
2022/05/17 04:39:20;;;;;;;12.63;9.38;;;;;;;32.28;35.51;99629.06;5081022;28;20203;-57
2022/05/17 04:41:47;;;;;;;11.25;10.20;;;;;;;31.18;37.30;99623.97;5079997;28;20295;-57
2022/05/17 04:44:14;;;;;;;11.00;9.82;;;;;;;30.72;38.33;99625.56;5068250;28;20237;-57
2022/05/17 04:46:41;;;;;;;11.13;10.13;;;;;;;30.82;38.27;99619.00;5070199;28;20234;-58
2022/05/17 04:49:09;;;;;;;13.35;10.90;;;;;;;30.75;38.75;99617.19;5088948;28;20689;-58
2022/05/17 04:51:36;;;;;;;11.73;10.55;;;;;;;31.80;36.66;99621.34;5084541;28;20228;-58
2022/05/17 04:54:03;;;;;;;12.38;11.10;;;;;;;32.65;35.84;99617.47;5087566;28;20218;-58
2022/05/17 04:56:30;;;;;;;11.85;10.52;;;;;;;33.77;33.47;99615.50;5087918;28;20215;-58
2022/05/17 04:58:57;;;;;;;11.85;10.20;;;;;;;34.81;31.67;99624.75;5087265;28;20753;-58
2022/05/17 05:01:24;;;;;;;12.85;9.30;;;;;;;34.55;31.72;99622.66;5088030;28;20215;-58
2022/05/17 05:03:51;;;;;;;9.32;8.57;;;;;;;35.29;30.98;99617.56;5088268;28;20315;-65
2022/05/17 05:06:20;;;;;;;12.07;8.30;;;;;;;35.09;30.30;99614.75;5088650;28;20229;-64
2022/05/17 05:08:47;;;;;;;11.82;8.23;;;;;;;35.35;30.05;99610.53;5089289;28;20715;-64
2022/05/17 05:11:14;;;;;;;9.60;7.70;;;;;;;35.54;29.55;99609.78;5087834;28;20605;-64
2022/05/17 05:13:41;;;;;;;9.63;8.10;;;;;;;35.60;29.32;99614.34;5089664;28;20215;-64
2022/05/17 05:16:11;;;;;;;7.90;7.30;;;;;;;36.11;28.72;99617.41;5089626;28;20199;-63
2022/05/17 05:18:38;;;;;;;8.02;7.35;;;;;;;36.30;28.64;99619.31;5089763;28;20581;-64
2022/05/17 05:21:09;;;;;;;13.82;7.47;;;;;;;36.81;27.94;99623.25;5089131;28;20195;-64
2022/05/17 05:23:37;;;;;;;8.70;7.35;;;;;;;36.64;27.80;99618.25;5089648;28;20203;-59
2022/05/17 05:26:04;;;;;;;7.78;6.95;;;;;;;36.32;28.55;99625.34;5089716;28;20224;-58
2022/05/17 05:28:32;;;;;;;8.68;7.80;;;;;;;36.65;27.91;99635.31;5089679;28;20205;-64
2022/05/17 05:31:00;;;;;;;7.88;7.18;;;;;;;36.06;28.35;99629.88;5088252;28;20290;-64
2022/05/17 05:33:29;;;;;;;9.45;7.60;;;;;;;35.96;28.40;99631.09;5088049;28;20199;-65
2022/05/17 05:35:56;;;;;;;12.00;6.97;;;;;;;36.15;27.71;99617.81;5088599;28;20274;-58
2022/05/17 05:38:23;;;;;;;8.52;7.65;;;;;;;34.84;29.25;99629.75;5089130;28;20184;-58
2022/05/17 05:40:51;;;;;;;7.43;7.03;;;;;;;34.31;30.37;99623.94;5088855;28;20671;-64
2022/05/17 05:43:19;;;;;;;8.40;7.38;;;;;;;34.11;30.90;99639.03;5089769;28;20195;-65
2022/05/17 05:45:46;;;;;;;8.93;7.05;;;;;;;34.18;30.99;99627.31;5088426;28;20229;-64
2022/05/17 05:48:13;;;;;;;8.85;7.63;;;;;;;34.66;30.54;99621.28;5088086;28;20236;-66
2022/05/17 05:50:40;;;;;;;7.55;7.03;;;;;;;35.68;29.29;99622.28;5089568;28;20273;-64
2022/05/17 05:53:09;;;;;;;8.20;7.28;;;;;;;36.16;28.85;99620.31;5089258;28;20202;-65
2022/05/17 05:55:37;;;;;;;8.93;7.20;;;;;;;36.56;28.31;99621.19;5089401;28;20197;-64
2022/05/17 05:58:07;;;;;;;7.85;7.18;;;;;;;36.47;28.27;99619.72;5089232;28;20199;-64
2022/05/17 06:00:36;;;;;;;7.90;7.20;;;;;;;36.22;28.80;99610.59;5093136;28;20206;-59
2022/05/17 06:03:04;;;;;;;7.03;6.32;;;;;;;36.15;29.14;99613.25;5093028;28;20195;-58
2022/05/17 06:05:32;;;;;;;7.25;6.65;;;;;;;35.39;29.75;99618.03;5091902;28;20206;-60
2022/05/17 06:07:59;;;;;;;7.20;6.53;;;;;;;35.83;29.29;99619.44;5093099;28;20645;-60
2022/05/17 06:10:26;;;;;;;11.52;7.72;;;;;;;35.88;29.31;99617.81;5091905;28;20286;-64
2022/05/17 06:12:53;;;;;;;8.45;7.35;;;;;;;35.70;29.68;99614.81;5092940;28;20237;-63
2022/05/17 06:15:21;;;;;;;7.15;6.72;;;;;;;35.44;29.20;99587.75;5091963;28;20198;-64
2022/05/17 06:17:49;;;;;;;8.43;7.57;;;;;;;35.21;29.99;99605.06;5092091;28;20284;-64
2022/05/17 06:20:16;;;;;;;7.88;7.22;;;;;;;35.29;29.73;99607.63;5092633;28;20202;-65
2022/05/17 06:22:43;;;;;;;7.45;6.90;;;;;;;36.03;29.12;99593.28;5091790;28;20195;-58
2022/05/17 06:25:11;;;;;;;9.40;7.13;;;;;;;36.16;28.52;99604.09;5091748;28;20200;-58
2022/05/17 06:27:38;;;;;;;7.88;6.85;;;;;;;36.83;27.78;99615.75;5092724;28;20219;-58
2022/05/17 06:30:07;;;;;;;7.13;6.50;;;;;;;35.69;28.94;99615.84;5092405;28;20195;-58
2022/05/17 06:32:35;;;;;;;9.55;7.43;;;;;;;35.07;29.87;99608.72;5092580;28;20199;-59
2022/05/17 06:35:02;;;;;;;7.65;6.90;;;;;;;35.59;29.31;99591.94;5091786;28;20594;-59
2022/05/17 06:37:29;;;;;;;8.25;7.60;;;;;;;35.39;29.32;99599.13;5092412;28;20221;-64
2022/05/17 06:39:56;;;;;;;8.18;7.38;;;;;;;35.18;29.79;99602.75;5091497;28;20631;-65
2022/05/17 06:42:23;;;;;;;8.75;7.00;;;;;;;35.15;30.07;99597.75;5092252;28;20200;-64
2022/05/17 06:44:50;;;;;;;7.50;7.00;;;;;;;34.92;30.43;99598.06;5091779;28;20310;-65
2022/05/17 06:47:18;;;;;;;9.25;7.13;;;;;;;34.57;30.71;99574.78;5092157;28;20230;-64
2022/05/17 06:49:46;;;;;;;11.00;7.00;;;;;;;34.00;31.57;99572.22;5088852;28;20748;-64
2022/05/17 06:52:13;;;;;;;10.05;6.55;;;;;;;33.46;32.06;99591.53;5091428;28;20588;-64
2022/05/17 06:54:41;;;;;;;10.18;7.22;;;;;;;32.92;33.33;99588.31;5089608;28;20195;-64
2022/05/17 06:57:10;;;;;;;12.38;6.75;;;;;;;33.49;32.31;99593.84;5090281;28;20285;-65
2022/05/17 06:59:39;;;;;;;7.20;6.57;;;;;;;33.97;32.61;99575.31;5090915;28;20605;-64
2022/05/17 07:02:08;;;;;;;7.25;6.60;;;;;;;34.18;31.34;99578.00;5083784;28;20216;-70
2022/05/17 07:04:35;;;;;;;7.25;6.60;;;;;;;33.83;32.21;99583.25;5070888;28;20302;-64
2022/05/17 07:07:04;;;;;;;9.57;6.88;;;;;;;33.86;32.23;99582.84;5089139;28;20310;-64
2022/05/17 07:09:32;;;;;;;8.45;7.80;;;;;;;34.13;31.95;99578.56;5089623;28;20219;-64
2022/05/17 07:14:44;;;;;;;12.20;7.55;;;;;;;33.52;32.13;99569.25;5091268;28;20218;-67
2022/05/17 07:17:15;;;;;;;7.03;6.35;;;;;;;34.00;31.56;99569.53;5088985;28;20216;-67
2022/05/17 07:19:42;;;;;;;9.23;7.10;;;;;;;34.06;31.39;99571.47;5091371;28;20245;-66
2022/05/17 07:22:11;;;;;;;9.05;8.13;;;;;;;34.95;30.08;99575.25;5090935;28;20771;-66
2022/05/17 07:24:40;;;;;;;10.07;9.15;;;;;;;34.94;30.17;99570.88;5091072;28;20226;-67
2022/05/17 07:27:09;;;;;;;7.65;7.15;;;;;;;34.65;30.16;99566.56;5090339;28;20789;-66
2022/05/17 07:29:37;;;;;;;7.10;6.43;;;;;;;34.82;29.76;99564.38;5091010;28;20258;-66
2022/05/17 07:32:04;;;;;;;6.80;6.20;;;;;;;35.03;29.44;99571.53;5089766;28;20217;-67
2022/05/17 07:34:33;;;;;;;10.90;6.97;;;;;;;35.08;29.44;99561.84;5090982;28;20221;-67
2022/05/17 07:37:00;;;;;;;9.02;8.30;;;;;;;35.19;29.10;99552.31;5089735;28;20214;-66
2022/05/17 07:39:28;;;;;;;7.68;7.07;;;;;;;36.03;28.49;99561.69;5089288;28;20349;-67
2022/05/17 07:41:55;;;;;;;8.93;7.60;;;;;;;36.32;27.71;99565.06;5088671;28;20290;-67
2022/05/17 07:44:22;;;;;;;7.85;6.80;;;;;;;36.53;27.79;99561.28;5089072;28;20690;-66
2022/05/17 07:46:49;;;;;;;6.70;6.07;;;;;;;36.69;27.58;99561.69;5088866;28;20215;-64
2022/05/17 07:49:16;;;;;;;8.25;6.97;;;;;;;36.92;26.81;99566.59;5090764;28;20262;-64
2022/05/17 07:51:42;;;;;;;8.93;7.10;;;;;;;37.23;26.77;99556.97;5090871;28;20230;-66
2022/05/17 07:54:09;;;;;;;10.48;9.45;;;;;;;37.38;26.25;99555.63;5090586;28;20205;-67
2022/05/17 07:56:38;;;;;;;7.50;7.00;;;;;;;37.83;25.86;99558.28;5090994;28;20194;-66
2022/05/17 07:59:05;;;;;;;14.38;8.02;;;;;;;37.97;26.04;99542.75;5090873;28;20194;-66
2022/05/17 08:01:31;;;;;;;7.60;7.03;;;;;;;37.96;26.25;99552.75;5090909;28;20190;-67
2022/05/17 08:03:58;;;;;;;8.73;6.93;;;;;;;38.08;25.78;99548.31;5090645;28;20286;-65
2022/05/17 08:06:25;;;;;;;9.57;7.38;;;;;;;38.26;25.99;99544.84;5090826;28;20271;-64
2022/05/17 08:08:52;;;;;;;9.63;7.35;;;;;;;37.84;26.58;99540.16;5089339;28;20201;-64
2022/05/17 08:11:19;;;;;;;7.25;6.57;;;;;;;38.19;26.19;99545.94;5090510;28;20293;-65
2022/05/17 08:13:47;;;;;;;6.93;6.43;;;;;;;37.78;26.38;99541.88;5090667;28;20685;-65
2022/05/17 08:16:14;;;;;;;7.93;6.40;;;;;;;37.22;26.63;99539.06;5090420;28;20199;-64
2022/05/17 08:18:41;;;;;;;8.15;7.45;;;;;;;37.22;26.63;99544.47;5090877;28;20629;-66
2022/05/17 08:21:08;;;;;;;8.40;6.95;;;;;;;37.37;26.92;99543.13;5090197;28;20197;-64
2022/05/17 08:23:35;;;;;;;7.25;6.75;;;;;;;37.50;26.35;99535.97;5090572;28;20199;-64
2022/05/17 08:28:48;;;;;;;7.30;6.78;;;;;;;37.05;27.40;99533.25;5090670;28;20190;-65
2022/05/17 08:31:15;;;;;;;8.57;7.65;;;;;;;36.43;27.79;99523.03;5090253;28;20205;-64
2022/05/17 08:33:42;;;;;;;7.53;7.03;;;;;;;35.80;28.33;99514.50;5089732;28;20191;-65
2022/05/17 08:36:11;;;;;;;8.95;7.30;;;;;;;35.61;28.88;99516.13;5089704;28;20199;-64
2022/05/17 08:38:40;;;;;;;7.97;7.22;;;;;;;35.53;29.25;99516.31;5089581;28;20199;-64
2022/05/17 08:41:13;;;;;;;8.05;6.85;;;;;;;35.58;28.91;99478.72;5089494;28;20195;-64
2022/05/17 08:43:53;;;;;;;8.05;7.38;;;;;;;35.34;29.34;99509.00;5087714;28;20198;-63
2022/05/17 08:46:27;;;;;;;8.65;8.05;;;;;;;34.87;29.31;99499.91;5087636;28;20591;-61
2022/05/17 08:48:56;;;;;;;8.50;7.78;;;;;;;34.64;30.05;99493.94;5089907;28;20199;-64
2022/05/17 08:51:36;;;;;;;10.50;6.97;;;;;;;34.35;30.39;99492.31;5089043;28;20195;-64
2022/05/17 08:54:05;;;;;;;8.48;7.68;;;;;;;34.35;30.81;99485.06;5089887;28;20207;-64
2022/05/17 08:56:38;;;;;;;8.25;7.63;;;;;;;34.40;30.58;99487.19;5089904;28;20202;-63
2022/05/17 08:59:07;;;;;;;8.35;7.70;;;;;;;34.42;30.53;99485.97;5084577;28;20199;-64
2022/05/17 09:01:44;;;;;;;8.10;7.40;;;;;;;34.49;29.89;99488.69;5086356;28;20646;-64
2022/05/17 09:04:41;;;;;;;7.82;7.13;;;;;;;34.48;30.18;99487.84;5086995;28;20579;-64
2022/05/17 09:07:17;;;;;;;11.60;7.20;;;;;;;34.20;30.27;99476.25;5085006;28;20218;-63
2022/05/17 09:09:57;;;;;;;7.30;6.80;;;;;;;34.43;29.61;99487.59;5086173;28;20198;-64
2022/05/17 09:12:30;;;;;;;7.97;7.43;;;;;;;34.39;29.91;99480.94;5086172;28;20253;-63
2022/05/17 09:15:01;;;;;;;9.77;7.18;;;;;;;34.73;29.15;99480.09;5088814;28;20203;-64
2022/05/17 09:17:28;;;;;;;7.82;7.22;;;;;;;34.87;29.07;99484.56;5089005;28;20201;-63
2022/05/17 09:19:56;;;;;;;8.30;7.60;;;;;;;35.08;28.94;99478.19;5089100;28;20229;-63
2022/05/17 09:22:24;;;;;;;8.32;7.47;;;;;;;34.67;29.18;99471.97;5088576;28;20241;-64
2022/05/17 09:24:57;;;;;;;8.45;7.63;;;;;;;34.56;29.64;99460.72;5088382;28;20197;-64
2022/05/17 09:27:29;;;;;;;7.22;6.75;;;;;;;34.96;28.66;99474.41;5086211;28;20646;-63
2022/05/17 09:30:05;;;;;;;7.13;6.57;;;;;;;34.92;28.45;99470.44;5088430;28;20229;-63
2022/05/17 09:32:35;;;;;;;7.60;7.07;;;;;;;35.28;28.16;99459.38;5087467;28;20199;-65
2022/05/17 09:35:09;;;;;;;6.90;6.50;;;;;;;35.54;27.37;99462.13;5086359;28;20682;-66
2022/05/17 09:37:40;;;;;;;7.07;6.55;;;;;;;36.12;27.72;99456.91;5092598;28;20244;-65
2022/05/17 09:40:12;;;;;;;8.85;7.05;;;;;;;35.95;28.03;99455.69;5090314;28;20219;-65
2022/05/17 09:42:44;;;;;;;10.07;7.22;;;;;;;35.85;28.04;99449.88;5092354;28;20203;-65
2022/05/17 09:45:17;;;;;;;7.68;7.13;;;;;;;35.50;28.08;99433.88;5091991;28;20218;-65
2022/05/17 09:47:54;;;;;;;7.82;7.22;;;;;;;35.39;28.49;99444.44;5092102;28;20218;-65
2022/05/17 09:53:10;;;;;;;7.68;6.82;;;;;;;35.20;29.27;99437.97;5092107;28;20218;-64
2022/05/17 09:55:40;;;;;;;10.60;6.70;;;;;;;35.61;28.26;99440.50;5091790;28;20647;-66
2022/05/17 09:58:10;;;;;;;7.43;6.40;;;;;;;35.15;28.07;99433.16;5092020;28;20199;-64
2022/05/17 10:00:50;;;;;;;9.30;6.30;;;;;;;35.01;27.65;99434.16;5091931;28;20206;-64
2022/05/17 10:03:34;;;;;;;8.40;6.40;;;;;;;35.05;27.68;99432.72;5091645;28;20203;-64
2022/05/17 10:06:02;;;;;;;9.85;6.57;;;;;;;35.21;26.92;99424.25;5087989;28;20274;-63
2022/05/17 10:08:37;;;;;;;6.20;5.70;;;;;;;34.92;26.69;99430.81;5091990;28;20306;-64
2022/05/17 10:11:13;;;;;;;6.53;5.22;;;;;;;34.17;26.84;99428.13;5089286;28;20734;-64
2022/05/17 10:13:52;;;;;;;11.82;9.23;;;;;;;33.79;26.48;99420.41;5091357;28;20195;-64
2022/05/17 10:16:26;;;;;;;6.35;5.65;;;;;;;33.52;27.08;99407.75;5091446;28;20290;-65
2022/05/17 10:18:58;;;;;;;6.10;5.60;;;;;;;33.72;27.43;99408.75;5091536;28;20277;-64
2022/05/17 10:21:33;;;;;;;6.65;5.68;;;;;;;33.95;26.86;99413.09;5089570;28;20582;-65
2022/05/17 10:24:12;;;;;;;10.10;6.70;;;;;;;33.92;27.03;99402.69;5091850;28;20766;-64
2022/05/17 10:26:44;;;;;;;5.72;5.32;;;;;;;33.71;26.83;99400.84;5091374;28;20199;-64
2022/05/17 10:29:22;;;;;;;5.95;5.18;;;;;;;33.60;27.12;99396.84;5091062;28;20187;-64
2022/05/17 10:31:57;;;;;;;9.30;5.72;;;;;;;33.42;27.40;99386.53;5091738;28;20636;-65
2022/05/17 10:34:33;;;;;;;16.33;6.00;;;;;;;33.22;28.51;99390.03;5089013;28;20213;-65
2022/05/17 10:37:06;;;;;;;7.90;7.20;;;;;;;33.03;27.72;99378.91;5091331;28;20594;-64
2022/05/17 10:39:39;;;;;;;9.55;7.32;;;;;;;33.02;28.00;99379.09;5091188;28;20643;-65
2022/05/17 10:42:07;;;;;;;6.68;5.55;;;;;;;32.94;28.07;99374.69;5089194;28;20191;-65
2022/05/17 10:44:40;;;;;;;9.27;7.13;;;;;;;32.52;28.69;99356.59;5091273;28;20611;-64
2022/05/17 10:47:15;;;;;;;6.15;5.60;;;;;;;32.55;28.51;99366.97;5089115;28;20249;-64
2022/05/17 10:49:56;;;;;;;8.75;5.57;;;;;;;32.49;27.05;99361.53;5091150;28;20227;-64
2022/05/17 10:52:32;;;;;;;8.57;3.55;;;;;;;32.27;22.96;99377.59;5082915;28;20286;-64
2022/05/17 10:55:09;;;;;;;3.67;3.42;;;;;;;32.25;22.92;99360.00;5091202;28;20201;-63
2022/05/17 10:57:49;;;;;;;4.20;3.70;;;;;;;32.38;23.05;99361.00;5091042;28;20726;-65
2022/05/17 11:00:19;;;;;;;3.40;3.20;;;;;;;32.53;22.86;99362.81;5089966;28;20193;-64
2022/05/17 11:03:01;;;;;;;3.97;3.63;;;;;;;32.32;22.96;99350.97;5088485;28;20203;-64
2022/05/17 11:05:38;;;;;;;3.08;2.70;;;;;;;32.37;22.16;99345.91;5089310;28;20635;-65
2022/05/17 11:08:16;;;;;;;4.10;3.45;;;;;;;32.50;21.20;99342.53;5088157;28;20295;-64
2022/05/17 11:10:57;;;;;;;4.47;4.18;;;;;;;32.58;21.59;99339.72;5087870;28;20187;-64
2022/05/17 11:13:29;;;;;;;4.93;3.90;;;;;;;32.58;21.70;99338.91;5088248;28;20187;-65
2022/05/17 11:16:01;;;;;;;3.90;3.60;;;;;;;32.41;21.28;99343.66;5090611;28;20663;-64
2022/05/17 11:18:38;;;;;;;3.83;3.47;;;;;;;32.38;21.94;99328.75;5090742;28;20207;-63
2022/05/17 11:21:10;;;;;;;6.80;6.30;;;;;;;32.51;22.21;99316.50;5085270;28;20197;-65
2022/05/17 11:23:54;;;;;;;4.57;4.18;;;;;;;32.46;21.81;99317.06;5090380;28;20195;-64
2022/05/17 11:26:52;;;;;;;5.05;3.70;;;;;;;32.36;21.73;99322.72;5090683;28;20199;-63
2022/05/17 11:29:47;;;;;;;3.95;3.63;;;;;;;32.06;23.37;99323.75;5090515;28;20214;-64
2022/05/17 11:32:24;;;;;;;3.70;3.38;;;;;;;31.91;24.05;99306.84;5089098;28;20226;-63
2022/05/17 11:34:54;;;;;;;7.05;4.25;;;;;;;32.05;24.69;99308.69;5088573;28;20205;-64
2022/05/17 11:37:48;;;;;;;5.93;5.32;;;;;;;32.22;24.52;99301.28;5090051;28;20207;-63
2022/05/17 11:40:52;;;;;;;4.28;3.88;;;;;;;32.32;24.50;99289.19;5089036;28;20719;-63
2022/05/17 11:46:07;;;;;;;8.95;5.05;;;;;;;32.14;24.03;99298.66;5089632;28;20721;-63